Thursday, February 11, 2016, 4:07 PM EST

KEZF, Fredericksburg, Shannon Airport

Location: Fredericksburg, VA, United States Lat: 38.267
Local Time: 4:07 PM EST (21:07 GMT) Lon: -77.45
Time Zone: US/Eastern Elev: 85 ft

Show me the last for .
Show Decoded

2016-02-11 15:55 METAR KEZF 112055Z AUTO 30008G16KT 10SM CLR 00/M16 A3014 RMK AO2 T00011163 =
2016-02-11 15:35 METAR KEZF 112035Z AUTO 33011G16KT 10SM CLR 00/M16 A3014 RMK AO2 T00011163 =
2016-02-11 15:15 METAR KEZF 112015Z AUTO 27012G19KT 10SM CLR 00/M17 A3013 RMK AO2 T00001167 =
2016-02-11 14:55 METAR KEZF 111955Z AUTO 29009G23KT 10SM SCT080 00/M17 A3012 RMK AO2 T00001167 =
2016-02-11 14:35 METAR KEZF 111935Z AUTO 28010G17KT 10SM SCT080 00/M16 A3012 RMK AO2 T00001158 =
2016-02-11 14:15 METAR KEZF 111915Z AUTO 33010G18KT 10SM CLR 00/M15 A3012 RMK AO2 T00001154 =
2016-02-11 13:55 METAR KEZF 111855Z AUTO 34009G18KT 10SM CLR 00/M15 A3011 RMK AO2 T10011155 =
2016-02-11 13:35 METAR KEZF 111835Z AUTO 32011G22KT 10SM CLR 00/M15 A3011 RMK AO2 T10031150 =
2016-02-11 13:15 METAR KEZF 111815Z AUTO 32015G20KT 10SM M01/M15 A3011 RMK AO2 T10061152 =
2016-02-11 12:55 METAR KEZF 111755Z AUTO 27014G20KT 10SM CLR M01/M15 A3012 RMK AO2 T10061151
                 11006 21069 =
2016-02-11 12:35 METAR KEZF 111735Z AUTO 30012G17KT 10SM CLR M01/M15 A3013 RMK AO2 T10141155 =
2016-02-11 12:15 METAR KEZF 111715Z AUTO 28013G19KT 10SM CLR M01/M15 A3014 RMK AO2 T10121152 =
2016-02-11 11:55 METAR KEZF 111655Z AUTO 29014G19KT 270V330 10SM CLR M02/M15 A3014 RMK AO2
                 T10181152 =
2016-02-11 11:35 METAR KEZF 111635Z AUTO 28015G20KT 10SM CLR M02/M15 A3014 RMK AO2 T10201153 =
2016-02-11 11:15 METAR KEZF 111615Z AUTO 30011G18KT 10SM CLR M02/M16 A3015 RMK AO2 T10251156 =
2016-02-11 10:55 METAR KEZF 111555Z AUTO 29009KT 10SM CLR M03/M15 A3015 RMK AO2 T10261153 =
2016-02-11 10:35 METAR KEZF 111535Z AUTO 27014G17KT 10SM CLR M03/M16 A3016 RMK AO2 T10301158 =
2016-02-11 10:15 METAR KEZF 111515Z AUTO 28012G17KT 10SM CLR M03/M16 A3015 RMK AO2 T10311157 =
2016-02-11 09:55 METAR KEZF 111455Z AUTO 27009G19KT 250V310 10SM CLR M04/M16 A3016 RMK AO2
                 T10401162 =
2016-02-11 09:35 METAR KEZF 111435Z AUTO 27006G17KT 10SM CLR M04/M16 A3016 RMK AO2 T10381161 =
2016-02-11 09:15 METAR KEZF 111415Z AUTO 27009KT 10SM CLR M04/M16 A3015 RMK AO2 T10411157 =
2016-02-11 08:55 METAR KEZF 111355Z AUTO 27012G17KT 10SM CLR M04/M16 A3014 RMK AO2 T10451158 =
2016-02-11 08:35 METAR KEZF 111335Z AUTO 26007KT 10SM CLR M05/M15 A3014 RMK AO2 T10501148 =
2016-02-11 08:15 METAR KEZF 111315Z AUTO 26009KT 10SM CLR M05/M15 A3014 RMK AO2 T10521146 =
2016-02-11 07:55 METAR KEZF 111255Z AUTO 26008KT 10SM CLR M06/M14 A3012 RMK AO2 T10581140 =
2016-02-11 07:35 METAR KEZF 111235Z AUTO 25007KT 10SM CLR M06/M13 A3011 RMK AO2 T10651135 =
2016-02-11 07:15 METAR KEZF 111215Z AUTO 25004KT 10SM CLR M07/M13 A3011 RMK AO2 T10681135 =
2016-02-11 06:55 METAR KEZF 111155Z AUTO 30004KT 10SM CLR M06/M15 A3010 RMK AO2 T10611149 11040
                 21067 =
2016-02-11 06:35 METAR KEZF 111135Z AUTO 28007KT 10SM CLR M06/M15 A3009 RMK AO2 T10601148 =
2016-02-11 06:15 METAR KEZF 111115Z AUTO 29005KT 10SM CLR M06/M14 A3008 RMK AO2 T10611140 =
2016-02-11 05:55 METAR KEZF 111055Z AUTO 27003KT 10SM CLR M07/M13 A3006 RMK AO2 T10671130 =
2016-02-11 05:35 METAR KEZF 111035Z AUTO 24003KT 10SM CLR M06/M13 A3006 RMK AO2 T10651129 =
2016-02-11 05:15 METAR KEZF 111015Z AUTO 24003KT 10SM CLR M06/M13 A3005 RMK AO2 T10611134 =
2016-02-11 04:55 METAR KEZF 110955Z AUTO 25005KT 10SM CLR M06/M14 A3004 RMK AO2 T10601139 =
2016-02-11 04:35 METAR KEZF 110935Z AUTO 26003KT 10SM CLR M05/M14 A3003 RMK AO2 T10541145 =
2016-02-11 04:15 METAR KEZF 110915Z AUTO 29008KT 10SM CLR M05/M15 A3002 RMK AO2 T10521146 =
2016-02-11 03:55 METAR KEZF 110855Z AUTO 25004KT 10SM CLR M05/M15 A3001 RMK AO2 T10511147 =
2016-02-11 03:35 METAR KEZF 110835Z AUTO 26004KT 10SM CLR M05/M15 A3001 RMK AO2 T10501148 =
2016-02-11 03:15 METAR KEZF 110815Z AUTO 30005KT 10SM CLR M05/M14 A3001 RMK AO2 T10481142 =
2016-02-11 02:55 METAR KEZF 110755Z AUTO 25003KT 10SM CLR M05/M13 A3001 RMK AO2 T10511135 =
2016-02-11 02:35 METAR KEZF 110735Z AUTO 26003KT 10SM CLR M05/M14 A3000 RMK AO2 T10501137 =
2016-02-11 02:15 METAR KEZF 110715Z AUTO 28005KT 10SM CLR M04/M14 A3001 RMK AO2 T10451142 =
2016-02-11 01:55 METAR KEZF 110655Z AUTO 28006KT 10SM CLR M04/M14 A3000 RMK AO2 T10421143 =
2016-02-11 01:35 METAR KEZF 110635Z AUTO 27007KT 10SM CLR M04/M14 A3000 RMK AO2 T10441138 =
2016-02-11 01:15 METAR KEZF 110615Z AUTO 29006KT 10SM CLR M04/M14 A3000 RMK AO2 T10401139 =
2016-02-11 00:55 METAR KEZF 110555Z AUTO 29009KT 10SM CLR M04/M13 A3000 RMK AO2 T10401135 11010
                 21041 400441041 =
2016-02-11 00:35 METAR KEZF 110535Z AUTO 29010KT 10SM CLR M04/M13 A2999 RMK AO2 T10401130 =
2016-02-11 00:15 METAR KEZF 110515Z AUTO 27005KT 10SM CLR M04/M12 A2999 RMK AO2 T10411123 =
2016-02-10 23:55 METAR KEZF 110455Z AUTO 00000KT 10SM SCT095 M04/M13 A2998 RMK AO2 T10391129 =
2016-02-10 23:35 METAR KEZF 110435Z AUTO 30005KT 10SM SCT095 M03/M13 A2998 RMK AO2 T10351129 =
2016-02-10 23:15 METAR KEZF 110415Z AUTO 31008KT 10SM SCT100 M03/M13 A2998 RMK AO2 T10321128 =
2016-02-10 22:55 METAR KEZF 110355Z AUTO 29010G14KT 10SM BKN090 M03/M12 A2997 RMK AO2 T10311121 =
2016-02-10 22:35 METAR KEZF 110335Z AUTO 00000KT 10SM SCT090 M03/M11 A2996 RMK AO2 T10311111 =
2016-02-10 22:15 METAR KEZF 110315Z AUTO 30004KT 10SM BKN090 BKN110 M03/M11 A2996 RMK AO2
                 T10301114 =
2016-02-10 21:55 METAR KEZF 110255Z AUTO 30005KT 10SM BKN080 OVC110 M03/M11 A2996 RMK AO2
                 T10271115 =
2016-02-10 21:35 METAR KEZF 110235Z AUTO 29006KT 10SM OVC080 M03/M11 A2995 RMK AO2 T10261112 =
2016-02-10 21:15 METAR KEZF 110215Z AUTO 30006KT 10SM OVC080 M02/M11 A2995 RMK AO2 T10251110 =
2016-02-10 20:55 METAR KEZF 110155Z AUTO 31008G16KT 10SM OVC080 M02/M11 A2995 RMK AO2 T10251108 =
2016-02-10 20:35 METAR KEZF 110135Z AUTO 30012G18KT 10SM OVC070 M02/M10 A2995 RMK AO2 T10251100 =
2016-02-10 20:15 METAR KEZF 110115Z AUTO 31008G15KT 10SM SCT048 OVC070 M02/M10 A2994 RMK AO2
                 T10211104 =
2016-02-10 19:55 METAR KEZF 110055Z AUTO 31013G17KT 10SM OVC080 M02/M10 A2993 RMK AO2 T10181101 =
2016-02-10 19:35 METAR KEZF 110035Z AUTO 34007KT 10SM OVC080 M02/M08 A2992 RMK AO2 T10201077 =
2016-02-10 19:15 METAR KEZF 110015Z AUTO 34009G14KT 310V020 10SM OVC080 M02/M06 A2991 RMK AO2
                 T10211065 =
2016-02-10 18:55 METAR KEZF 102355Z AUTO 33013G18KT 10SM SCT050 SCT060 OVC080 M01/M09 A2990 RMK
                 AO2 T10101086 10044 21010 =
2016-02-10 18:35 METAR KEZF 102335Z AUTO 33009KT 10SM SCT034 BKN048 OVC050 M01/M07 A2989 RMK AO2
                 T10071071 =
2016-02-10 18:15 METAR KEZF 102315Z AUTO 33011G23KT 10SM SCT038 BKN048 OVC060 M01/M07 A2988 RMK
                 AO2 T10061066 =
2016-02-10 17:55 METAR KEZF 102255Z AUTO 33012G19KT 10SM SCT043 OVC050 01/M07 A2986 RMK AO2
                 T00071070 =
2016-02-10 17:35 METAR KEZF 102235Z AUTO 30014G20KT 10SM SCT060 OVC075 02/M09 A2984 RMK AO2
                 T00181090 =
2016-02-10 17:15 METAR KEZF 102215Z AUTO 27012G17KT 10SM SCT050 OVC075 02/M09 A2982 RMK AO2
                 T00231088 =
2016-02-10 16:55 METAR KEZF 102155Z AUTO 30012KT 10SM BKN050 BKN065 OVC075 03/M08 A2981 RMK AO2
                 T00251082 =
2016-02-10 16:35 METAR KEZF 102135Z AUTO 30010G16KT 10SM SCT060 BKN070 BKN080 03/M08 A2980 RMK
                 AO2 T00291082 =
2016-02-10 16:15 METAR KEZF 102115Z AUTO 27013G17KT 10SM BKN060 OVC070 03/M09 A2980 RMK AO2
                 T00301087 =

Support USWX by starting your Amazon purchase here.